Aérodrome :
LOGIN :

S'inscrire | Disclaimer

   EN    FR    IT 

 










Légende :    VFR   VFR Marginal   IFR   IFR Intensif   IFR Très Intensif
Visi : 
Plafond : 
>= 8 km
>= 3000ft
5 à 8 km
1000 à 3000 ft
1500m à 5 km
500 à 1000 ft
800 à 1500m
200 à 500 ft
< 800m
< 200 ft
Symboles :   Orages  Brouillard  Fortes neiges  Fortes précipitations  Vent > 20 kt
SIGMETs :   Divers  Orages  Givrage  Turbulence  Onde Orograph.  Cendres Volcan.






- Altitude de l'aérodrome : 408 ft
- Code IATA : KWG


UKDR - Lozuvatka

DERNIER METAR :
  • 040800Z 10004MPS 4100 BR OVC005 M01/M02 Q1027 R36/19//60 NOSIG

METARs EXPIRÉS :
  • 040730Z 11005MPS 4700 BR OVC004 M01/M02 Q1026 R36/19//60 NOSIG
  • 040700Z 11004MPS 2600 BR OVC003 M01/M03 Q1027 R36/19//60 TEMPO 1100 BR OVC002
  • 040630Z 11005MPS 1800 BR OVC003 M01/M03 Q1026 R36/290255 TEMPO 1100 BR OVC002
  • 040600Z 10004MPS 1700 BR OVC003 M01/M03 Q1026 R36/290255 TEMPO 1100 BR OVC002

TAF TAF UKDR
Valide du 04 à 06h jusqu'au 05 à 06h UTC


040503Z 0406/0506 11005MPS 2000 BR OVC004 TX03/0412Z TNM01/0406Z
TEMPO 0406/0408 1100 BR OVC002
BECMG 0408/0410 4000 BR OVC007
FIR UKDV / Europe



MET'MAP, la Météo Aéronautique d'un coup d'oeil ! - Copyright ORBIFLY Décembre 2007 - Disclaimer

ORBIFLY MET'MAP TEAM :

Programmation & Développement : Alexandra Zaïnal
Sur une idée originale de : Baudouin d'Aumeries
Assistance à la programmation : Marc-Olivier Méhu
Soutien technique & logistique : Manuel Goepfert

Contact : metmap@orbifly.com




SOURCES & CREDITS :

   NOAA